createdAt,value
2022-11-29T00:01:19.858Z,80.28
2022-11-29T00:03:46.778Z,82.25
2022-11-29T00:06:20.017Z,93.78
2022-11-29T00:08:47.116Z,78.93
2022-11-29T00:11:16.936Z,68.68
2022-11-29T00:13:43.513Z,65.65
2022-11-29T00:16:11.392Z,64.95
2022-11-29T00:18:37.942Z,62.60
2022-11-29T00:21:06.224Z,60.58
2022-11-29T00:23:32.770Z,62.03
2022-11-29T00:26:07.656Z,58.10
2022-11-29T00:28:35.951Z,75.10
2022-11-29T00:31:14.556Z,67.80
2022-11-29T00:33:41.071Z,82.25
2022-11-29T00:36:07.844Z,78.70
2022-11-29T00:38:34.550Z,70.53
2022-11-29T00:41:01.014Z,65.15
2022-11-29T00:43:27.515Z,75.10
2022-11-29T00:45:54.205Z,80.60
2022-11-29T00:48:20.783Z,82.85
2022-11-29T00:50:47.249Z,80.50
2022-11-29T00:53:13.743Z,93.00
2022-11-29T00:55:40.189Z,80.78
2022-11-29T00:58:06.761Z,72.07
2022-11-29T01:00:33.253Z,76.80
2022-11-29T01:02:59.957Z,76.10
2022-11-29T01:05:26.594Z,76.78
2022-11-29T01:07:53.348Z,69.03
2022-11-29T01:10:20.067Z,72.05
2022-11-29T01:12:46.598Z,59.13
2022-11-29T01:15:13.182Z,60.67
2022-11-29T01:17:40.779Z,70.80
2022-11-29T01:20:10.263Z,64.80
2022-11-29T01:22:37.768Z,69.35
2022-11-29T01:25:05.618Z,74.68
2022-11-29T01:27:32.717Z,86.75
2022-11-29T01:29:59.201Z,88.35
2022-11-29T01:32:25.758Z,92.93
2022-11-29T01:34:52.203Z,101.28
2022-11-29T01:37:18.703Z,112.72
2022-11-29T01:39:45.209Z,100.38
2022-11-29T01:42:13.191Z,112.18
2022-11-29T01:44:39.635Z,99.18
2022-11-29T01:47:06.088Z,112.07
2022-11-29T01:49:35.873Z,106.15
2022-11-29T01:52:06.518Z,108.00
2022-11-29T01:54:36.602Z,118.43
2022-11-29T01:57:06.291Z,97.57
2022-11-29T01:59:33.996Z,98.03
2022-11-29T02:02:06.947Z,106.85
2022-11-29T02:04:38.304Z,90.65
2022-11-29T02:07:05.263Z,83.65
2022-11-29T02:09:31.812Z,80.60
2022-11-29T02:12:01.320Z,78.32
2022-11-29T02:14:57.268Z,75.10
2022-11-29T02:17:40.508Z,65.68
2022-11-29T02:20:34.902Z,82.07
2022-11-29T02:23:23.149Z,67.13
2022-11-29T02:26:42.772Z,84.18
2022-11-29T02:29:27.702Z,67.05
2022-11-29T02:32:31.828Z,82.47
2022-11-29T02:35:07.898Z,82.47
2022-11-29T02:37:43.360Z,88.00
2022-11-29T02:40:38.805Z,85.00
2022-11-29T02:43:08.416Z,76.78
2022-11-29T02:45:46.906Z,88.10
2022-11-29T02:48:16.390Z,86.90
2022-11-29T02:50:55.535Z,68.50
2022-11-29T02:53:30.199Z,68.82
2022-11-29T02:56:11.037Z,83.93
2022-11-29T02:58:59.122Z,72.57
2022-11-29T03:01:47.131Z,64.82
2022-11-29T03:04:23.469Z,56.67
2022-11-29T03:07:11.508Z,68.70
2022-11-29T03:09:47.517Z,62.15
2022-11-29T03:12:35.531Z,63.00
2022-11-29T03:15:21.383Z,59.78
2022-11-29T03:18:06.292Z,72.22
2022-11-29T03:20:38.555Z,58.35
2022-11-29T03:23:13.715Z,51.85
2022-11-29T03:26:19.025Z,45.60
2022-11-29T03:29:02.498Z,50.20
2022-11-29T03:31:37.514Z,40.85
2022-11-29T03:34:33.219Z,48.47
2022-11-29T03:37:05.399Z,38.60
2022-11-29T03:39:44.167Z,53.75
2022-11-29T03:42:45.535Z,46.60
2022-11-29T03:45:19.558Z,55.83
2022-11-29T03:48:03.605Z,64.88
2022-11-29T03:50:44.124Z,54.30
2022-11-29T03:53:31.796Z,66.88
2022-11-29T03:56:04.371Z,71.90
2022-11-29T03:58:35.754Z,66.07
2022-11-29T04:01:21.095Z,75.22
2022-11-29T04:04:02.883Z,66.82
2022-11-29T04:07:03.792Z,71.25
2022-11-29T04:09:48.858Z,67.75
2022-11-29T04:12:18.508Z,66.40
2022-11-29T04:15:30.248Z,66.85
2022-11-29T04:18:09.061Z,70.75
2022-11-29T04:21:00.393Z,60.92
2022-11-29T04:23:51.846Z,57.70
2022-11-29T04:26:39.633Z,56.85
2022-11-29T04:29:06.083Z,52.00
2022-11-29T04:31:56.626Z,55.95
2022-11-29T04:34:38.671Z,58.05
2022-11-29T04:37:15.250Z,48.25
2022-11-29T04:39:58.764Z,53.47
2022-11-29T04:42:43.802Z,51.60
2022-11-29T04:45:47.770Z,53.83
2022-11-29T04:48:26.047Z,57.28
2022-11-29T04:50:55.767Z,46.25
2022-11-29T04:53:37.172Z,48.80
2022-11-29T04:56:12.456Z,56.72
2022-11-29T04:59:33.471Z,54.75
2022-11-29T05:02:12.964Z,49.80
2022-11-29T05:04:53.249Z,43.55
2022-11-29T05:07:58.256Z,54.03
2022-11-29T05:10:56.253Z,41.38
2022-11-29T05:13:41.410Z,43.97
2022-11-29T05:16:29.877Z,48.60
2022-11-29T05:19:35.068Z,44.22
2022-11-29T05:22:27.638Z,46.50
2022-11-29T05:25:19.107Z,46.97
2022-11-29T05:28:09.698Z,54.95
2022-11-29T05:31:16.115Z,59.30
2022-11-29T05:34:08.188Z,59.30
2022-11-29T05:39:38.190Z,53.33
2022-11-29T05:42:10.678Z,48.42
2022-11-29T05:44:56.833Z,46.35
2022-11-29T05:47:36.052Z,44.25
2022-11-29T05:50:10.701Z,55.70
2022-11-29T05:53:04.921Z,58.28
2022-11-29T05:55:50.148Z,46.53
2022-11-29T05:58:32.522Z,46.03
2022-11-29T06:01:13.265Z,45.67
2022-11-29T06:03:51.081Z,48.65
2022-11-29T06:06:43.181Z,49.10
2022-11-29T06:09:26.747Z,43.47
2022-11-29T06:11:58.565Z,46.45
2022-11-29T06:14:46.738Z,48.80
2022-11-29T06:17:39.067Z,45.58
2022-11-29T06:20:24.969Z,40.63
2022-11-29T06:23:12.314Z,46.80
2022-11-29T06:26:19.258Z,53.30
2022-11-29T06:28:51.820Z,43.10
2022-11-29T06:31:29.049Z,56.20
2022-11-29T06:34:10.303Z,40.50
2022-11-29T06:36:45.064Z,34.40
2022-11-29T06:39:12.008Z,42.95
2022-11-29T06:41:38.599Z,41.13
2022-11-29T06:44:05.774Z,46.83
2022-11-29T06:46:48.518Z,42.08
2022-11-29T06:49:51.757Z,53.63
2022-11-29T06:52:37.097Z,61.70
2022-11-29T06:55:12.571Z,47.88
2022-11-29T06:58:16.210Z,56.80
2022-11-29T07:01:01.861Z,51.88
2022-11-29T07:04:10.396Z,51.45
2022-11-29T07:06:37.198Z,55.08
2022-11-29T07:09:13.505Z,62.22
2022-11-29T07:11:40.851Z,62.80
2022-11-29T07:14:08.080Z,64.72
2022-11-29T07:16:57.322Z,68.20
2022-11-29T07:20:00.449Z,57.13
2022-11-29T07:22:35.934Z,57.15
2022-11-29T07:25:16.996Z,50.90
2022-11-29T07:27:46.454Z,58.85
2022-11-29T07:30:18.751Z,53.53
2022-11-29T07:33:00.885Z,47.88
2022-11-29T07:35:38.567Z,52.47
2022-11-29T07:38:23.910Z,69.55
2022-11-29T07:41:13.891Z,63.95
2022-11-29T07:44:05.357Z,50.75
2022-11-29T07:46:31.919Z,54.53
2022-11-29T07:48:58.469Z,63.22
2022-11-29T07:51:25.644Z,52.50
2022-11-29T07:53:52.176Z,56.22
2022-11-29T07:56:18.696Z,60.47
2022-11-29T07:58:45.209Z,57.08
2022-11-29T08:01:11.977Z,42.88
2022-11-29T08:03:38.507Z,44.17
2022-11-29T08:06:05.062Z,53.22
2022-11-29T08:08:31.615Z,58.92
2022-11-29T08:10:58.113Z,57.55
2022-11-29T08:13:24.648Z,53.78
2022-11-29T08:15:51.118Z,47.38
2022-11-29T08:18:17.898Z,59.10
2022-11-29T08:20:44.790Z,67.80
2022-11-29T08:23:12.581Z,65.85
2022-11-29T08:25:39.775Z,69.82
2022-11-29T08:28:06.394Z,79.63
2022-11-29T08:30:32.951Z,55.53
2022-11-29T08:32:59.458Z,57.60
2022-11-29T08:35:25.994Z,48.70
2022-11-29T08:37:54.483Z,41.45
2022-11-29T08:40:21.047Z,61.70
2022-11-29T08:42:47.523Z,59.88
2022-11-29T08:45:14.032Z,68.00
2022-11-29T08:47:40.535Z,70.35
2022-11-29T08:50:16.100Z,84.65
2022-11-29T08:52:45.603Z,73.82
2022-11-29T08:55:12.221Z,63.05
2022-11-29T08:57:40.432Z,68.15
2022-11-29T09:00:08.150Z,63.42
2022-11-29T09:02:36.450Z,68.65
2022-11-29T09:05:04.215Z,70.03
2022-11-29T09:07:30.921Z,64.47
2022-11-29T09:09:57.506Z,59.10
2022-11-29T09:12:24.040Z,58.63
2022-11-29T09:14:50.502Z,55.22
2022-11-29T09:17:17.051Z,58.92
2022-11-29T09:19:43.510Z,49.25
2022-11-29T09:22:10.063Z,53.03
2022-11-29T09:24:36.568Z,51.55
2022-11-29T09:27:03.147Z,49.38
2022-11-29T09:29:29.618Z,51.72
2022-11-29T09:31:56.435Z,60.90
2022-11-29T09:34:23.481Z,51.72
2022-11-29T09:36:50.112Z,56.08
2022-11-29T09:39:16.603Z,59.35
2022-11-29T09:42:07.664Z,54.05
2022-11-29T09:44:50.469Z,66.77
2022-11-29T09:47:24.978Z,61.92
2022-11-29T09:50:03.577Z,64.60
2022-11-29T09:52:36.225Z,67.40
2022-11-29T09:55:43.874Z,59.90
2022-11-29T09:58:15.530Z,62.17
2022-11-29T10:03:25.001Z,49.35
2022-11-29T10:05:57.117Z,61.10
2022-11-29T10:08:31.716Z,57.13
2022-11-29T10:11:16.131Z,48.33
2022-11-29T10:13:47.251Z,57.55
2022-11-29T10:16:36.206Z,51.15
2022-11-29T10:19:11.823Z,60.40
2022-11-29T10:21:43.632Z,62.92
2022-11-29T10:24:14.486Z,53.10
2022-11-29T10:26:42.156Z,47.13
2022-11-29T10:29:14.247Z,60.58
2022-11-29T10:31:44.150Z,59.83
2022-11-29T10:34:24.950Z,44.10
2022-11-29T10:36:57.667Z,56.80
2022-11-29T10:39:29.810Z,50.80
2022-11-29T10:41:59.921Z,53.42
2022-11-29T10:44:27.018Z,57.25
2022-11-29T10:46:55.030Z,54.63
2022-11-29T10:49:26.833Z,52.55
2022-11-29T10:51:53.394Z,42.03
2022-11-29T10:54:28.931Z,43.65
2022-11-29T10:56:58.934Z,42.53
2022-11-29T10:59:28.194Z,46.20
2022-11-29T11:01:55.565Z,42.58
2022-11-29T11:04:35.140Z,49.88
2022-11-29T11:07:06.032Z,43.55
2022-11-29T11:09:39.501Z,39.30
2022-11-29T11:12:16.848Z,49.45
2022-11-29T11:14:44.778Z,45.13
2022-11-29T11:17:15.737Z,61.75
2022-11-29T11:19:42.399Z,97.05
2022-11-29T11:22:20.869Z,49.28
2022-11-29T11:25:23.945Z,32.85
2022-11-29T11:27:50.873Z,32.08
2022-11-29T11:30:28.084Z,26.23
2022-11-29T11:33:19.376Z,31.20
2022-11-29T11:36:06.105Z,31.67
2022-11-29T11:38:35.060Z,31.77
2022-11-29T11:41:07.447Z,34.15
2022-11-29T11:43:34.568Z,35.47
2022-11-29T11:46:01.375Z,36.90
2022-11-29T11:48:28.691Z,72.43
2022-11-29T11:50:59.158Z,50.45
2022-11-29T11:53:36.441Z,61.75
2022-11-29T11:56:05.975Z,46.65
2022-11-29T11:58:37.587Z,52.70
2022-11-29T12:04:01.029Z,40.28
2022-11-29T12:06:30.562Z,30.17
2022-11-29T12:09:17.206Z,28.50
2022-11-29T12:11:51.109Z,34.00
2022-11-29T12:14:59.350Z,34.55
2022-11-29T12:17:38.007Z,43.60
2022-11-29T12:20:22.967Z,39.67
2022-11-29T12:23:05.664Z,40.55
2022-11-29T12:25:39.596Z,44.95
2022-11-29T12:28:15.842Z,31.85
2022-11-29T12:30:59.022Z,43.50
2022-11-29T12:33:37.681Z,37.90
2022-11-29T12:36:30.944Z,39.53
2022-11-29T12:39:09.555Z,31.77
2022-11-29T12:42:00.127Z,31.77
2022-11-29T12:44:44.113Z,29.80
2022-11-29T12:47:42.105Z,33.22
2022-11-29T12:50:46.507Z,28.83
2022-11-29T12:53:47.090Z,35.45
2022-11-29T12:56:33.961Z,32.83
2022-11-29T12:59:30.377Z,28.90
2022-11-29T13:02:12.087Z,27.85
2022-11-29T13:07:41.142Z,29.02
2022-11-29T13:10:41.819Z,26.25
2022-11-29T13:13:26.514Z,32.55
2022-11-29T13:16:02.474Z,27.45
2022-11-29T13:18:54.373Z,26.00
2022-11-29T13:21:46.681Z,27.65
2022-11-29T13:24:24.194Z,25.25
2022-11-29T13:26:52.528Z,25.15
2022-11-29T13:29:23.739Z,25.73
2022-11-29T13:31:51.639Z,25.80
2022-11-29T13:34:21.184Z,26.55
2022-11-29T13:37:07.567Z,22.60
2022-11-29T13:39:40.067Z,22.15
2022-11-29T13:42:48.183Z,23.63
2022-11-29T13:45:27.113Z,22.45
2022-11-29T13:48:00.125Z,27.20
2022-11-29T13:50:45.883Z,21.38
2022-11-29T13:53:20.361Z,23.55
2022-11-29T13:55:48.493Z,20.23
2022-11-29T13:58:17.413Z,21.27
2022-11-29T14:00:44.779Z,23.05
2022-11-29T14:03:23.536Z,30.17
2022-11-29T14:05:54.443Z,21.13
2022-11-29T14:08:37.932Z,24.45
2022-11-29T14:11:14.877Z,21.05
2022-11-29T14:13:41.339Z,21.25
2022-11-29T14:16:18.047Z,20.70
2022-11-29T14:18:44.597Z,23.38
2022-11-29T14:21:11.601Z,21.70
2022-11-29T14:23:39.743Z,21.20
2022-11-29T14:26:06.219Z,23.73
2022-11-29T14:28:37.359Z,28.42
2022-11-29T14:31:05.633Z,26.50
2022-11-29T14:33:38.885Z,20.30
2022-11-29T14:36:43.412Z,25.42
2022-11-29T14:39:18.941Z,22.40
2022-11-29T14:41:45.535Z,30.88
2022-11-29T14:44:34.137Z,33.25
2022-11-29T14:47:18.849Z,34.35
2022-11-29T14:49:46.013Z,24.98
2022-11-29T14:52:15.640Z,27.58
2022-11-29T14:54:55.139Z,30.25
2022-11-29T14:57:46.958Z,34.05
2022-11-29T15:00:48.888Z,26.10
2022-11-29T15:03:26.299Z,29.13
2022-11-29T15:06:16.045Z,25.00
2022-11-29T15:08:54.814Z,23.77
2022-11-29T15:11:50.679Z,29.45
2022-11-29T15:14:28.175Z,33.35
2022-11-29T15:17:04.447Z,34.15
2022-11-29T15:19:57.608Z,31.23
2022-11-29T15:22:30.779Z,36.90
2022-11-29T15:25:02.092Z,38.33
2022-11-29T15:27:28.859Z,43.83
2022-11-29T15:29:55.435Z,31.55
2022-11-29T15:32:30.064Z,29.38
2022-11-29T15:34:57.353Z,26.90
2022-11-29T15:37:35.921Z,33.47
2022-11-29T15:40:05.810Z,30.45
2022-11-29T15:42:50.281Z,34.85
2022-11-29T15:45:27.186Z,37.25
2022-11-29T15:47:54.600Z,33.75
2022-11-29T15:50:32.630Z,34.53
2022-11-29T15:53:04.124Z,25.52
2022-11-29T15:55:31.099Z,27.95
2022-11-29T15:58:05.511Z,27.33
2022-11-29T16:00:35.823Z,28.90
2022-11-29T16:03:04.822Z,30.90
2022-11-29T16:05:34.767Z,27.58
2022-11-29T16:08:16.360Z,23.38
2022-11-29T16:10:49.592Z,22.27
2022-11-29T16:13:25.506Z,29.85
2022-11-29T16:16:11.071Z,23.40
2022-11-29T16:18:40.335Z,22.00
2022-11-29T16:21:08.006Z,23.15
2022-11-29T16:23:35.786Z,17.88
2022-11-29T16:26:13.070Z,22.80
2022-11-29T16:28:44.576Z,20.77
2022-11-29T16:31:19.355Z,21.10
2022-11-29T16:33:48.030Z,18.25
2022-11-29T16:36:23.644Z,19.50
2022-11-29T16:38:54.315Z,23.95
2022-11-29T16:41:37.874Z,15.38
2022-11-29T16:44:06.654Z,25.48
2022-11-29T16:46:35.086Z,18.70
2022-11-29T16:49:23.931Z,19.45
2022-11-29T16:51:52.000Z,16.10
2022-11-29T16:54:24.847Z,19.10
2022-11-29T16:56:53.505Z,19.33
2022-11-29T16:59:27.795Z,12.45
2022-11-29T17:01:55.771Z,13.32
2022-11-29T17:04:23.783Z,21.10
2022-11-29T17:06:53.190Z,18.15
2022-11-29T17:09:28.133Z,19.10
2022-11-29T17:11:56.087Z,22.65
2022-11-29T17:14:22.913Z,22.48
2022-11-29T17:16:49.551Z,19.75
2022-11-29T17:19:17.142Z,20.02
2022-11-29T17:21:43.893Z,26.65
2022-11-29T17:24:13.105Z,26.95
2022-11-29T17:26:40.660Z,24.75
2022-11-29T17:29:09.213Z,21.50
2022-11-29T17:31:35.755Z,23.27
2022-11-29T17:34:02.781Z,31.35
2022-11-29T17:36:29.617Z,29.77
2022-11-29T17:38:56.302Z,24.63
2022-11-29T17:41:24.531Z,25.33
2022-11-29T17:43:52.433Z,34.60
2022-11-29T17:46:22.038Z,38.97
2022-11-29T17:48:49.999Z,35.63
2022-11-29T17:51:50.022Z,35.88
2022-11-29T17:54:06.617Z,30.10
2022-11-29T17:56:33.700Z,26.10
2022-11-29T17:59:02.823Z,32.60
2022-11-29T18:01:32.176Z,26.48
2022-11-29T18:04:01.410Z,31.48
2022-11-29T18:06:30.070Z,27.52
2022-11-29T18:09:00.727Z,31.17
2022-11-29T18:11:42.969Z,31.90
2022-11-29T18:14:13.508Z,30.90
2022-11-29T18:16:40.243Z,38.88
2022-11-29T18:19:19.081Z,47.13
2022-11-29T18:21:45.699Z,43.97
2022-11-29T18:24:13.315Z,46.03
2022-11-29T18:26:40.724Z,35.95
2022-11-29T18:29:08.063Z,37.42
2022-11-29T18:31:37.420Z,37.22
2022-11-29T18:34:06.173Z,36.58
2022-11-29T18:36:36.910Z,40.42
2022-11-29T18:39:17.587Z,37.53
2022-11-29T18:41:48.096Z,42.08
2022-11-29T18:44:16.426Z,40.65
2022-11-29T18:46:44.271Z,36.78
2022-11-29T18:49:16.358Z,36.88
2022-11-29T18:51:44.145Z,42.78
2022-11-29T18:54:11.109Z,36.08
2022-11-29T18:56:38.144Z,36.75
2022-11-29T18:59:10.235Z,37.75
2022-11-29T19:01:38.923Z,46.45
2022-11-29T19:04:05.447Z,41.78
2022-11-29T19:06:39.191Z,43.25
2022-11-29T19:09:10.375Z,43.20
2022-11-29T19:11:37.070Z,41.65
2022-11-29T19:14:05.909Z,42.53
2022-11-29T19:16:34.394Z,46.20
2022-11-29T19:19:01.486Z,60.40
2022-11-29T19:21:31.058Z,56.08
2022-11-29T19:24:00.335Z,61.80
2022-11-29T19:26:28.871Z,43.60
2022-11-29T19:28:55.958Z,45.47
2022-11-29T19:31:23.876Z,46.90
2022-11-29T19:33:51.374Z,57.08
2022-11-29T19:36:29.564Z,47.85
2022-11-29T19:38:59.492Z,49.53
2022-11-29T19:41:28.814Z,54.45
2022-11-29T19:44:01.271Z,51.58
2022-11-29T19:46:30.933Z,50.80
2022-11-29T19:49:00.546Z,46.95
2022-11-29T19:51:28.040Z,56.00
2022-11-29T19:53:57.187Z,50.60
2022-11-29T19:56:23.708Z,52.58
2022-11-29T19:58:50.743Z,50.53
2022-11-29T20:01:23.077Z,45.58
2022-11-29T20:03:50.292Z,46.92
2022-11-29T20:06:18.330Z,55.13
2022-11-29T20:08:45.072Z,44.75
2022-11-29T20:11:22.711Z,41.78
2022-11-29T20:14:03.269Z,43.95
2022-11-29T20:16:30.595Z,48.63
2022-11-29T20:18:57.618Z,41.65
2022-11-29T20:21:45.645Z,46.40
2022-11-29T20:24:13.183Z,45.80
2022-11-29T20:26:41.531Z,44.60
2022-11-29T20:29:08.690Z,48.22
2022-11-29T20:31:36.851Z,39.47
2022-11-29T20:34:05.788Z,36.47
2022-11-29T20:37:04.763Z,41.13
2022-11-29T20:39:54.325Z,39.35
2022-11-29T20:42:51.682Z,34.70
2022-11-29T20:45:18.713Z,36.20
2022-11-29T20:48:03.789Z,38.88
2022-11-29T20:50:32.032Z,46.40
2022-11-29T20:53:05.764Z,45.92
2022-11-29T20:55:32.453Z,45.78
2022-11-29T20:57:58.966Z,43.30
2022-11-29T21:00:25.590Z,44.67
2022-11-29T21:02:52.042Z,46.40
2022-11-29T21:05:18.698Z,45.03
2022-11-29T21:07:45.428Z,53.42
2022-11-29T21:10:12.477Z,46.13
2022-11-29T21:12:39.262Z,50.97
2022-11-29T21:15:06.500Z,44.38
2022-11-29T21:17:34.060Z,45.50
2022-11-29T21:20:01.097Z,45.80
2022-11-29T21:22:35.089Z,47.00
2022-11-29T21:25:25.755Z,51.22
2022-11-29T21:27:54.630Z,46.28
2022-11-29T21:30:23.318Z,39.33
2022-11-29T21:32:50.290Z,48.05
2022-11-29T21:35:17.298Z,48.75
2022-11-29T21:37:44.783Z,41.95
2022-11-29T21:40:12.550Z,43.15
2022-11-29T21:42:39.253Z,42.05
2022-11-29T21:45:11.678Z,43.47
2022-11-29T21:47:41.826Z,49.63
2022-11-29T21:50:08.713Z,44.55
2022-11-29T21:52:35.211Z,45.13
2022-11-29T21:55:02.019Z,47.05
2022-11-29T21:57:28.518Z,47.25
2022-11-29T21:59:55.008Z,40.55
2022-11-29T22:02:21.603Z,43.15
2022-11-29T22:04:48.456Z,51.63
2022-11-29T22:07:15.176Z,51.40
2022-11-29T22:09:41.719Z,45.20
2022-11-29T22:12:32.052Z,49.25
2022-11-29T22:14:55.176Z,37.28
2022-11-29T22:17:21.627Z,38.72
2022-11-29T22:19:48.131Z,44.85
2022-11-29T22:22:14.598Z,50.55
2022-11-29T22:24:41.424Z,42.78
2022-11-29T22:27:08.440Z,39.03
2022-11-29T22:29:34.943Z,36.05
2022-11-29T22:32:01.383Z,33.60
2022-11-29T22:34:28.262Z,32.85
2022-11-29T22:36:55.014Z,37.58
2022-11-29T22:39:23.205Z,44.42
2022-11-29T22:41:54.201Z,57.45
2022-11-29T22:44:22.738Z,55.33
2022-11-29T22:46:49.541Z,45.50
2022-11-29T22:49:16.102Z,50.63
2022-11-29T22:51:42.582Z,39.38
2022-11-29T22:54:10.621Z,41.83
2022-11-29T22:56:39.311Z,36.42
2022-11-29T22:59:05.913Z,47.55
2022-11-29T23:01:34.874Z,42.70
2022-11-29T23:04:04.126Z,43.00
2022-11-29T23:06:42.685Z,46.63
2022-11-29T23:09:15.133Z,40.55
2022-11-29T23:11:42.925Z,36.33
2022-11-29T23:14:09.973Z,41.92
2022-11-29T23:16:36.696Z,41.85
2022-11-29T23:19:03.258Z,46.83
2022-11-29T23:21:32.371Z,43.78
2022-11-29T23:23:59.629Z,40.55
2022-11-29T23:26:27.101Z,45.75
2022-11-29T23:28:55.186Z,41.17
2022-11-29T23:31:23.718Z,38.80
2022-11-29T23:33:51.264Z,43.75
2022-11-29T23:36:17.883Z,37.10
2022-11-29T23:38:44.752Z,46.13
2022-11-29T23:41:12.073Z,49.63
2022-11-29T23:43:41.522Z,44.83
2022-11-29T23:46:12.300Z,47.28
2022-11-29T23:48:38.889Z,49.75
2022-11-29T23:51:05.730Z,56.15
2022-11-29T23:53:32.712Z,54.95
2022-11-29T23:56:05.241Z,46.88
2022-11-29T23:58:33.172Z,48.85
